TimeCDT,TemperatureF,Dew PointF,Humidity,Sea Level PressureIn,VisibilityMPH,Wind Direction,Wind SpeedMPH,Gust SpeedMPH,PrecipitationIn,Events,Conditions,WindDirDegrees,DateUTC
12:53 AM,68.0,61.0,78,30.01,10.0,SE,6.9,-,N/A,,Clear,130,2013-07-06 05:53:00
1:53 AM,66.9,61.0,81,30.00,10.0,SE,6.9,-,N/A,,Clear,140,2013-07-06 06:53:00
2:53 AM,64.9,61.0,87,30.00,10.0,SSE,5.8,-,N/A,,Clear,160,2013-07-06 07:53:00
3:53 AM,64.9,61.0,87,29.99,10.0,Calm,Calm,-,N/A,,Clear,0,2013-07-06 08:53:00
4:53 AM,64.0,60.1,87,29.99,10.0,ESE,6.9,-,N/A,,Clear,110,2013-07-06 09:53:00
5:53 AM,63.0,60.1,90,30.00,9.0,SE,4.6,-,N/A,,Clear,140,2013-07-06 10:53:00
6:53 AM,64.0,61.0,90,30.00,7.0,ESE,5.8,-,N/A,,Clear,120,2013-07-06 11:53:00
7:53 AM,68.0,63.0,84,30.02,9.0,ESE,5.8,-,N/A,,Clear,120,2013-07-06 12:53:00
8:53 AM,73.0,64.9,76,30.03,10.0,South,3.5,-,N/A,,Clear,170,2013-07-06 13:53:00
9:53 AM,79.0,64.0,60,30.03,10.0,ESE,4.6,-,N/A,,Clear,120,2013-07-06 14:53:00
10:53 AM,82.9,63.0,51,30.03,10.0,Variable,3.5,-,N/A,,Clear,0,2013-07-06 15:53:00
11:53 AM,84.0,60.1,44,30.02,10.0,South,3.5,-,N/A,,Clear,170,2013-07-06 16:53:00
12:53 PM,84.9,57.9,40,30.00,10.0,East,9.2,-,N/A,,Partly Cloudy,100,2013-07-06 17:53:00
1:53 PM,86.0,59.0,40,29.99,10.0,Variable,4.6,-,N/A,,Scattered Clouds,0,2013-07-06 18:53:00
2:53 PM,88.0,57.0,35,29.96,10.0,SSE,10.4,21.9,N/A,,Partly Cloudy,160,2013-07-06 19:53:00
3:53 PM,89.1,55.0,31,29.96,10.0,Calm,Calm,-,N/A,,Scattered Clouds,0,2013-07-06 20:53:00
4:53 PM,88.0,57.0,35,29.95,10.0,SSE,8.1,-,N/A,,Partly Cloudy,160,2013-07-06 21:53:00
5:53 PM,87.1,59.0,39,29.95,10.0,SSE,6.9,-,N/A,,Clear,150,2013-07-06 22:53:00
6:53 PM,84.0,57.9,41,29.96,10.0,SE,9.2,-,N/A,,Clear,140,2013-07-06 23:53:00
7:53 PM,81.0,60.1,49,29.96,10.0,South,5.8,-,N/A,,Clear,180,2013-07-07 00:53:00
8:53 PM,77.0,61.0,58,29.97,10.0,SSE,5.8,-,N/A,,Clear,150,2013-07-07 01:53:00
9:53 PM,73.9,62.1,66,29.99,10.0,SSE,3.5,-,N/A,,Clear,160,2013-07-07 02:53:00
10:53 PM,72.0,62.1,71,30.00,10.0,SSE,4.6,-,N/A,,Clear,150,2013-07-07 03:53:00
11:53 PM,71.1,62.1,73,30.01,10.0,SSE,5.8,-,N/A,,Clear,160,2013-07-07 04:53:00